createdAt,value
2019-04-11T00:00:55.477Z,9.20
2019-04-11T00:02:47.643Z,9.20
2019-04-11T00:04:41.978Z,9.20
2019-04-11T00:06:34.290Z,9.20
2019-04-11T00:08:26.552Z,9.10
2019-04-11T00:10:19.043Z,9.10
2019-04-11T00:12:12.395Z,9.10
2019-04-11T00:14:05.328Z,9.10
2019-04-11T00:15:57.555Z,9.10
2019-04-11T00:17:41.843Z,9.00
2019-04-11T00:19:35.818Z,9.00
2019-04-11T00:21:30.858Z,9.00
2019-04-11T00:23:24.320Z,9.00
2019-04-11T00:25:17.636Z,9.00
2019-04-11T00:27:12.943Z,9.00
2019-04-11T00:29:05.951Z,9.00
2019-04-11T00:31:00.753Z,9.00
2019-04-11T00:32:53.867Z,9.00
2019-04-11T00:34:47.022Z,8.90
2019-04-11T00:36:40.833Z,8.90
2019-04-11T00:38:34.107Z,8.90
2019-04-11T00:40:27.021Z,8.90
2019-04-11T00:42:20.693Z,8.80
2019-04-11T00:44:13.294Z,8.80
2019-04-11T00:46:05.467Z,8.80
2019-04-11T00:47:57.588Z,8.80
2019-04-11T00:49:50.476Z,8.90
2019-04-11T00:51:42.912Z,8.80
2019-04-11T00:53:36.093Z,8.80
2019-04-11T00:55:29.500Z,8.80
2019-04-11T00:57:21.701Z,8.80
2019-04-11T00:59:14.189Z,8.80
2019-04-11T01:01:07.207Z,8.80
2019-04-11T01:02:59.997Z,8.70
2019-04-11T01:04:52.870Z,8.70
2019-04-11T01:06:45.090Z,8.60
2019-04-11T01:08:37.815Z,8.60
2019-04-11T01:10:30.487Z,8.60
2019-04-11T01:12:22.702Z,8.60
2019-04-11T01:14:15.326Z,8.50
2019-04-11T01:16:24.156Z,8.40
2019-04-11T01:18:16.643Z,8.30
2019-04-11T01:20:09.188Z,8.40
2019-04-11T01:22:02.697Z,8.20
2019-04-11T01:23:55.453Z,8.20
2019-04-11T01:25:49.076Z,8.30
2019-04-11T01:27:42.545Z,8.10
2019-04-11T01:29:35.634Z,8.20
2019-04-11T01:31:29.817Z,8.20
2019-04-11T01:33:22.030Z,8.10
2019-04-11T01:35:15.219Z,8.00
2019-04-11T01:37:07.738Z,8.00
2019-04-11T01:39:01.725Z,8.10
2019-04-11T01:40:56.195Z,8.00
2019-04-11T01:42:49.188Z,7.90
2019-04-11T01:44:42.936Z,7.90
2019-04-11T01:46:35.408Z,7.90
2019-04-11T01:48:36.539Z,7.90
2019-04-11T01:50:30.063Z,7.90
2019-04-11T01:52:22.479Z,7.80
2019-04-11T01:54:15.298Z,7.80
2019-04-11T01:56:09.271Z,7.80
2019-04-11T01:58:02.501Z,7.80
2019-04-11T01:59:55.563Z,7.70
2019-04-11T02:02:01.225Z,7.80
2019-04-11T02:04:07.757Z,7.90
2019-04-11T02:06:01.194Z,7.80
2019-04-11T02:07:53.597Z,7.80
2019-04-11T02:09:46.369Z,7.60
2019-04-11T02:11:39.448Z,7.60
2019-04-11T02:13:32.287Z,7.60
2019-04-11T02:15:25.476Z,7.50
2019-04-11T02:17:18.793Z,7.50
2019-04-11T02:19:12.161Z,7.50
2019-04-11T02:21:05.241Z,7.50
2019-04-11T02:22:59.150Z,7.40
2019-04-11T02:25:01.819Z,7.30
2019-04-11T02:27:01.411Z,7.30
2019-04-11T02:28:53.655Z,7.20
2019-04-11T02:30:48.388Z,7.20
2019-04-11T02:32:42.890Z,7.20
2019-04-11T02:34:35.296Z,7.10
2019-04-11T02:36:29.572Z,7.10
2019-04-11T02:38:23.553Z,7.00
2019-04-11T02:40:15.593Z,7.00
2019-04-11T02:42:08.953Z,7.00
2019-04-11T02:44:01.628Z,7.00
2019-04-11T02:46:08.917Z,7.00
2019-04-11T02:47:51.232Z,6.80
2019-04-11T02:49:43.666Z,6.80
2019-04-11T02:51:37.396Z,6.80
2019-04-11T02:53:32.089Z,6.90
2019-04-11T02:55:25.178Z,6.90
2019-04-11T02:57:18.319Z,6.90
2019-04-11T02:59:11.338Z,7.00
2019-04-11T03:01:05.837Z,6.90
2019-04-11T03:02:59.346Z,7.00
2019-04-11T03:04:52.949Z,7.00
2019-04-11T03:06:45.764Z,6.90
2019-04-11T03:08:39.204Z,6.90
2019-04-11T03:10:33.698Z,7.00
2019-04-11T03:12:27.567Z,6.90
2019-04-11T03:14:20.801Z,6.80
2019-04-11T03:16:28.123Z,6.80
2019-04-11T03:18:10.061Z,6.80
2019-04-11T03:20:14.361Z,6.80
2019-04-11T03:21:56.576Z,6.70
2019-04-11T03:23:49.747Z,6.70
2019-04-11T03:25:44.932Z,6.70
2019-04-11T03:27:37.793Z,6.70
2019-04-11T03:29:31.458Z,6.70
2019-04-11T03:32:05.258Z,6.70
2019-04-11T03:34:13.088Z,6.80
2019-04-11T03:37:27.238Z,6.80
2019-04-11T03:39:22.064Z,6.70
2019-04-11T03:41:12.515Z,6.70
2019-04-11T03:43:02.087Z,6.70
2019-04-11T03:44:47.756Z,6.60
2019-04-11T03:46:49.388Z,6.60
2019-04-11T03:48:43.801Z,6.40
2019-04-11T03:50:28.064Z,6.50
2019-04-11T03:52:19.367Z,6.60
2019-04-11T03:54:13.555Z,6.70
2019-04-11T03:56:07.622Z,6.60
2019-04-11T03:58:01.270Z,6.60
2019-04-11T03:59:54.530Z,6.60
2019-04-11T04:01:48.743Z,6.70
2019-04-11T04:03:42.591Z,6.70
2019-04-11T04:05:36.933Z,6.70
2019-04-11T04:07:29.838Z,6.60
2019-04-11T04:09:23.969Z,6.60
2019-04-11T04:11:19.076Z,6.50
2019-04-11T04:13:16.307Z,6.50
2019-04-11T04:15:29.641Z,6.50
2019-04-11T04:17:25.343Z,6.60
2019-04-11T04:19:32.692Z,6.70
2019-04-11T04:21:26.549Z,6.70
2019-04-11T04:23:23.165Z,6.70
2019-04-11T04:25:16.701Z,6.60
2019-04-11T04:27:10.264Z,6.50
2019-04-11T04:29:04.428Z,6.40
2019-04-11T04:30:57.973Z,6.30
2019-04-11T04:32:52.080Z,6.30
2019-04-11T04:34:46.386Z,6.40
2019-04-11T04:36:40.317Z,6.30
2019-04-11T04:38:33.843Z,6.50
2019-04-11T04:40:44.719Z,6.30
2019-04-11T04:42:30.803Z,6.30
2019-04-11T04:44:17.031Z,6.30
2019-04-11T04:46:27.983Z,6.30
2019-04-11T04:48:11.146Z,6.20
2019-04-11T04:49:59.262Z,6.20
2019-04-11T04:51:53.316Z,6.20
2019-04-11T04:53:45.731Z,6.40
2019-04-11T04:55:38.119Z,6.40
2019-04-11T04:57:31.788Z,6.40
2019-04-11T04:59:24.310Z,6.40
2019-04-11T05:01:17.287Z,6.20
2019-04-11T05:03:10.544Z,6.20
2019-04-11T05:05:05.700Z,6.20
2019-04-11T05:06:59.054Z,6.30
2019-04-11T05:08:52.609Z,6.40
2019-04-11T05:10:44.963Z,6.40
2019-04-11T05:12:38.756Z,6.30
2019-04-11T05:14:31.744Z,6.30
2019-04-11T05:16:24.514Z,6.30
2019-04-11T05:18:18.068Z,6.40
2019-04-11T05:20:11.861Z,6.40
2019-04-11T05:22:04.339Z,6.30
2019-04-11T05:23:56.764Z,6.40
2019-04-11T05:25:48.856Z,6.40
2019-04-11T05:27:41.916Z,6.40
2019-04-11T05:29:35.532Z,6.40
2019-04-11T05:31:28.072Z,6.40
2019-04-11T05:33:21.213Z,6.40
2019-04-11T05:35:14.387Z,6.40
2019-04-11T05:37:06.974Z,6.40
2019-04-11T05:39:00.308Z,6.40
2019-04-11T05:40:52.686Z,6.30
2019-04-11T05:42:51.032Z,6.30
2019-04-11T05:44:43.522Z,6.30
2019-04-11T05:46:47.732Z,6.20
2019-04-11T05:48:41.141Z,6.30
2019-04-11T05:50:34.057Z,6.40
2019-04-11T05:52:29.934Z,6.40
2019-04-11T05:54:20.435Z,6.30
2019-04-11T05:56:13.947Z,6.20
2019-04-11T05:58:12.293Z,6.20
2019-04-11T06:00:01.433Z,6.20
2019-04-11T06:02:01.507Z,6.10
2019-04-11T06:03:53.561Z,6.10
2019-04-11T06:05:47.714Z,6.00
2019-04-11T06:07:47.648Z,6.10
2019-04-11T06:09:41.628Z,6.20
2019-04-11T06:11:41.233Z,6.10
2019-04-11T06:13:51.562Z,5.90
2019-04-11T06:15:45.385Z,6.00
2019-04-11T06:17:38.999Z,6.30
2019-04-11T06:19:35.737Z,6.40
2019-04-11T06:21:29.473Z,6.40
2019-04-11T06:23:32.283Z,6.50
2019-04-11T06:25:27.671Z,6.70
2019-04-11T06:27:35.252Z,7.10
2019-04-11T06:29:31.920Z,7.20
2019-04-11T06:31:42.319Z,7.60
2019-04-11T06:33:37.138Z,7.40
2019-04-11T06:35:46.847Z,7.20
2019-04-11T06:37:56.296Z,6.90
2019-04-11T06:40:00.561Z,7.30
2019-04-11T06:41:54.961Z,7.00
2019-04-11T06:44:05.452Z,6.80
2019-04-11T06:46:00.794Z,6.60
2019-04-11T06:48:07.401Z,6.30
2019-04-11T06:50:04.838Z,6.30
2019-04-11T06:52:02.205Z,6.30
2019-04-11T06:54:12.747Z,6.40
2019-04-11T06:56:06.711Z,6.40
2019-04-11T06:58:03.278Z,6.40
2019-04-11T06:59:56.687Z,6.20
2019-04-11T07:01:49.050Z,6.30
2019-04-11T07:03:49.050Z,6.30
2019-04-11T07:05:42.692Z,6.30
2019-04-11T07:07:36.329Z,6.10
2019-04-11T07:09:37.571Z,6.10
2019-04-11T07:11:46.323Z,5.90
2019-04-11T07:13:43.374Z,5.90
2019-04-11T07:15:37.709Z,6.00
2019-04-11T07:17:48.123Z,5.90
2019-04-11T07:19:58.517Z,6.00
2019-04-11T07:21:51.143Z,5.90
2019-04-11T07:24:01.134Z,6.00
2019-04-11T07:26:04.496Z,5.80
2019-04-11T07:28:16.614Z,5.80
2019-04-11T07:30:13.513Z,5.90
2019-04-11T07:32:07.076Z,5.90
2019-04-11T07:34:08.606Z,5.90
2019-04-11T07:36:08.721Z,5.90
2019-04-11T07:38:01.224Z,6.00
2019-04-11T07:40:13.202Z,6.00
2019-04-11T07:42:11.267Z,6.10
2019-04-11T07:44:04.310Z,6.10
2019-04-11T07:46:04.694Z,6.00
2019-04-11T07:48:01.303Z,6.00
2019-04-11T07:49:56.531Z,5.90
2019-04-11T07:51:49.314Z,6.00
2019-04-11T07:53:43.734Z,6.00
2019-04-11T07:55:38.684Z,6.00
2019-04-11T07:57:44.752Z,6.20
2019-04-11T07:59:55.699Z,6.20
2019-04-11T08:01:59.326Z,6.10
2019-04-11T08:04:01.888Z,6.10
2019-04-11T08:06:07.592Z,6.20
2019-04-11T08:08:01.355Z,6.20
2019-04-11T08:10:02.439Z,6.20
2019-04-11T08:12:00.374Z,6.40
2019-04-11T08:14:12.562Z,6.50
2019-04-11T08:16:22.721Z,6.40
2019-04-11T08:18:28.733Z,6.20
2019-04-11T08:20:43.999Z,6.10
2019-04-11T08:22:38.925Z,6.10
2019-04-11T08:24:36.580Z,6.20
2019-04-11T08:26:33.941Z,6.20
2019-04-11T08:28:26.936Z,6.30
2019-04-11T08:30:22.478Z,6.40
2019-04-11T08:32:33.791Z,6.50
2019-04-11T08:34:29.093Z,6.70
2019-04-11T08:36:32.122Z,6.90
2019-04-11T08:38:26.701Z,6.90
2019-04-11T08:40:21.775Z,6.80
2019-04-11T08:42:17.012Z,7.00
2019-04-11T08:44:09.843Z,7.20
2019-04-11T08:46:10.953Z,7.10
2019-04-11T08:48:08.732Z,7.40
2019-04-11T08:50:02.098Z,7.30
2019-04-11T08:51:55.745Z,7.50
2019-04-11T08:53:51.117Z,7.40
2019-04-11T08:55:51.989Z,7.50
2019-04-11T08:57:41.535Z,7.70
2019-04-11T08:59:46.118Z,7.60
2019-04-11T09:01:40.169Z,7.40
2019-04-11T09:04:02.073Z,7.50
2019-04-11T09:06:02.609Z,7.80
2019-04-11T09:08:10.409Z,7.80
2019-04-11T09:10:04.204Z,7.70
2019-04-11T09:11:58.228Z,7.90
2019-04-11T09:13:52.795Z,8.30
2019-04-11T09:16:03.508Z,8.30
2019-04-11T09:18:04.269Z,8.20
2019-04-11T09:19:55.452Z,8.10
2019-04-11T09:22:06.734Z,8.50
2019-04-11T09:24:01.872Z,8.50
2019-04-11T09:26:01.729Z,8.30
2019-04-11T09:28:07.305Z,8.20
2019-04-11T09:30:09.806Z,8.10
2019-04-11T09:32:20.175Z,8.10
2019-04-11T09:34:17.550Z,7.90
2019-04-11T09:36:28.986Z,7.80
2019-04-11T09:38:24.341Z,7.70
2019-04-11T09:40:37.003Z,7.70
2019-04-11T09:42:34.574Z,7.80
2019-04-11T09:44:46.779Z,7.80
2019-04-11T09:46:50.606Z,8.10
2019-04-11T09:48:56.607Z,8.20
2019-04-11T09:50:51.082Z,8.20
2019-04-11T09:52:45.305Z,8.10
2019-04-11T09:54:42.165Z,8.40
2019-04-11T09:56:36.438Z,8.40
2019-04-11T09:58:31.639Z,8.50
2019-04-11T10:00:31.310Z,8.50
2019-04-11T10:02:41.904Z,8.50
2019-04-11T10:04:36.065Z,8.50
2019-04-11T10:06:48.748Z,8.60
2019-04-11T10:08:43.658Z,9.00
2019-04-11T10:10:43.021Z,9.10
2019-04-11T10:12:52.286Z,9.20
2019-04-11T10:14:46.164Z,9.30
2019-04-11T10:16:56.241Z,9.50
2019-04-11T10:19:07.470Z,9.50
2019-04-11T10:21:01.236Z,9.60
2019-04-11T10:23:13.365Z,9.70
2019-04-11T10:25:14.867Z,9.80
2019-04-11T10:27:24.660Z,10.00
2019-04-11T10:29:34.631Z,10.00
2019-04-11T10:31:26.943Z,10.20
2019-04-11T10:33:20.545Z,10.20
2019-04-11T10:35:30.897Z,10.50
2019-04-11T10:37:23.477Z,10.90
2019-04-11T10:39:29.321Z,10.70
2019-04-11T10:41:23.034Z,11.10
2019-04-11T10:43:18.218Z,10.60
2019-04-11T10:45:12.481Z,10.60
2019-04-11T10:47:09.996Z,11.20
2019-04-11T10:49:13.619Z,11.00
2019-04-11T10:51:13.548Z,10.80
2019-04-11T10:53:06.745Z,10.70
2019-04-11T10:55:06.752Z,10.80
2019-04-11T10:57:00.697Z,10.80
2019-04-11T10:58:55.277Z,10.90
2019-04-11T11:00:55.723Z,11.10
2019-04-11T11:03:06.228Z,11.40
2019-04-11T11:04:59.042Z,11.40
2019-04-11T11:06:53.799Z,11.30
2019-04-11T11:08:54.145Z,11.30
2019-04-11T11:10:46.307Z,11.40
2019-04-11T11:12:39.846Z,11.30
2019-04-11T11:14:34.442Z,11.70
2019-04-11T11:16:30.515Z,11.70
2019-04-11T11:19:04.334Z,11.40
2019-04-11T11:20:49.955Z,11.00
2019-04-11T11:22:55.942Z,11.00
2019-04-11T11:24:54.552Z,11.10
2019-04-11T11:26:47.687Z,11.00
2019-04-11T11:28:41.656Z,11.00
2019-04-11T11:30:37.927Z,11.30
2019-04-11T11:32:33.644Z,11.30
2019-04-11T11:34:30.615Z,11.50
2019-04-11T11:36:26.981Z,11.70
2019-04-11T11:38:21.911Z,12.20
2019-04-11T11:40:17.966Z,12.50
2019-04-11T11:42:28.439Z,11.80
2019-04-11T11:44:22.432Z,12.00
2019-04-11T11:46:25.832Z,12.10
2019-04-11T11:48:35.572Z,12.20
2019-04-11T11:50:32.863Z,12.20
2019-04-11T11:52:34.996Z,12.20
2019-04-11T11:54:29.483Z,12.40
2019-04-11T11:56:22.205Z,12.80
2019-04-11T11:58:19.935Z,12.50
2019-04-11T12:00:16.911Z,12.30
2019-04-11T12:02:16.795Z,12.70
2019-04-11T12:04:12.781Z,12.60
2019-04-11T12:06:07.258Z,12.70
2019-04-11T12:08:04.288Z,12.70
2019-04-11T12:10:01.129Z,12.50
2019-04-11T12:11:57.008Z,12.50
2019-04-11T12:13:57.871Z,11.90
2019-04-11T12:15:55.189Z,12.10
2019-04-11T12:17:49.123Z,12.60
2019-04-11T12:19:52.974Z,12.80
2019-04-11T12:21:40.978Z,12.50
2019-04-11T12:24:00.491Z,12.60
2019-04-11T12:25:47.520Z,12.10
2019-04-11T12:27:58.297Z,12.00
2019-04-11T12:29:58.220Z,12.00
2019-04-11T12:31:52.331Z,12.20
2019-04-11T12:33:57.952Z,12.20
2019-04-11T12:35:59.063Z,12.00
2019-04-11T12:38:06.436Z,11.70
2019-04-11T12:40:17.084Z,11.90
2019-04-11T12:42:10.595Z,11.80
2019-04-11T12:44:04.387Z,11.70
2019-04-11T12:46:17.670Z,11.70
2019-04-11T12:48:11.970Z,11.70
2019-04-11T12:50:12.860Z,11.50
2019-04-11T12:52:22.743Z,11.50
2019-04-11T12:54:16.809Z,11.40
2019-04-11T12:56:10.904Z,11.30
2019-04-11T12:58:10.564Z,11.20
2019-04-11T13:00:06.323Z,10.90
2019-04-11T13:02:03.123Z,11.00
2019-04-11T13:04:12.314Z,10.90
2019-04-11T13:06:22.370Z,10.90
2019-04-11T13:08:32.399Z,10.90
2019-04-11T13:10:24.653Z,10.90
2019-04-11T13:12:34.916Z,10.90
2019-04-11T13:14:34.652Z,10.90
2019-04-11T13:16:28.459Z,11.20
2019-04-11T13:18:25.163Z,11.20
2019-04-11T13:20:24.922Z,11.40
2019-04-11T13:22:19.158Z,11.50
2019-04-11T13:24:31.048Z,11.40
2019-04-11T13:26:40.864Z,11.30
2019-04-11T13:28:33.784Z,11.30
2019-04-11T13:30:27.507Z,11.00
2019-04-11T13:32:21.865Z,11.10
2019-04-11T13:34:16.052Z,10.90
2019-04-11T13:36:12.276Z,10.90
2019-04-11T13:38:09.248Z,10.80
2019-04-11T13:40:05.743Z,10.70
2019-04-11T13:42:05.643Z,10.70
2019-04-11T13:43:57.770Z,10.90
2019-04-11T13:46:09.796Z,11.00
2019-04-11T13:48:19.711Z,11.10
2019-04-11T13:50:16.894Z,11.10
2019-04-11T13:52:11.672Z,11.00
2019-04-11T13:54:22.204Z,11.10
2019-04-11T13:56:14.170Z,11.10
2019-04-11T13:58:23.103Z,11.10
2019-04-11T14:00:32.035Z,11.10
2019-04-11T14:02:32.027Z,10.90
2019-04-11T14:04:26.065Z,11.10
2019-04-11T14:06:20.358Z,11.00
2019-04-11T14:08:14.376Z,11.00
2019-04-11T14:10:08.211Z,11.20
2019-04-11T14:12:00.101Z,11.10
2019-04-11T14:13:54.180Z,11.10
2019-04-11T14:15:47.433Z,11.00
2019-04-11T14:17:42.388Z,11.00
2019-04-11T14:19:41.380Z,11.10
2019-04-11T14:21:32.917Z,11.10
2019-04-11T14:23:27.005Z,11.00
2019-04-11T14:25:21.151Z,10.90
2019-04-11T14:27:17.668Z,10.60
2019-04-11T14:29:11.603Z,10.40
2019-04-11T14:31:22.768Z,10.30
2019-04-11T14:33:16.150Z,10.40
2019-04-11T14:35:26.072Z,10.40
2019-04-11T14:37:19.724Z,10.50
2019-04-11T14:39:19.169Z,10.50
2019-04-11T14:41:29.004Z,10.50
2019-04-11T14:43:22.695Z,10.50
2019-04-11T14:45:16.608Z,10.50
2019-04-11T14:47:26.620Z,10.60
2019-04-11T14:49:19.815Z,10.70
2019-04-11T14:51:30.229Z,10.70
2019-04-11T14:53:40.213Z,10.60
2019-04-11T14:55:32.780Z,10.70
2019-04-11T14:57:29.245Z,10.70
2019-04-11T14:59:28.807Z,10.60
2019-04-11T15:01:23.725Z,10.50
2019-04-11T15:03:33.740Z,10.70
2019-04-11T15:05:36.328Z,10.70
2019-04-11T15:07:30.344Z,10.60
2019-04-11T15:09:38.969Z,10.60
2019-04-11T15:11:47.175Z,10.70
2019-04-11T15:13:40.655Z,10.60
2019-04-11T15:15:37.453Z,10.60
2019-04-11T15:17:31.514Z,10.60
2019-04-11T15:19:24.036Z,10.50
2019-04-11T15:21:18.040Z,10.60
2019-04-11T15:23:11.717Z,10.50
2019-04-11T15:25:25.260Z,10.50
2019-04-11T15:27:28.803Z,10.50
2019-04-11T15:29:22.619Z,10.50
2019-04-11T15:31:22.048Z,10.40
2019-04-11T15:33:32.839Z,10.40
2019-04-11T15:35:25.052Z,10.50
2019-04-11T15:37:21.891Z,10.50
2019-04-11T15:39:43.923Z,10.40
2019-04-11T15:41:27.558Z,10.20
2019-04-11T15:43:33.773Z,10.20
2019-04-11T15:45:33.141Z,10.20
2019-04-11T15:47:26.312Z,10.30
2019-04-11T15:49:29.542Z,10.40
2019-04-11T15:51:16.577Z,10.40
2019-04-11T15:53:08.609Z,10.50
2019-04-11T15:55:08.536Z,10.20
2019-04-11T15:57:02.718Z,10.10
2019-04-11T15:59:08.386Z,10.20
2019-04-11T16:01:18.991Z,10.20
2019-04-11T16:03:11.473Z,10.20
2019-04-11T16:05:22.354Z,10.10
2019-04-11T16:07:32.515Z,10.20
2019-04-11T16:09:25.392Z,10.10
2019-04-11T16:11:35.681Z,10.00
2019-04-11T16:13:29.531Z,10.00
2019-04-11T16:15:23.495Z,10.10
2019-04-11T16:17:33.745Z,10.10
2019-04-11T16:19:33.404Z,9.90
2019-04-11T16:21:32.783Z,9.90
2019-04-11T16:23:32.800Z,9.90
2019-04-11T16:25:28.908Z,9.90
2019-04-11T16:27:23.691Z,9.90
2019-04-11T16:29:23.211Z,10.00
2019-04-11T16:31:15.614Z,9.90
2019-04-11T16:33:12.709Z,9.90
2019-04-11T16:35:13.484Z,9.80
2019-04-11T16:37:05.742Z,9.80
2019-04-11T16:39:19.513Z,9.80
2019-04-11T16:41:27.668Z,9.80
2019-04-11T16:43:24.210Z,9.70
2019-04-11T16:45:31.451Z,9.80
2019-04-11T16:47:28.079Z,9.80
2019-04-11T16:49:20.179Z,9.90
2019-04-11T16:51:12.051Z,9.90
2019-04-11T16:53:04.556Z,9.90
2019-04-11T16:54:56.864Z,9.90
2019-04-11T16:56:48.935Z,9.90
2019-04-11T16:58:40.906Z,9.90
2019-04-11T17:00:33.118Z,9.90
2019-04-11T17:02:25.644Z,9.90
2019-04-11T17:04:18.267Z,9.90
2019-04-11T17:06:12.080Z,9.80
2019-04-11T17:08:08.362Z,9.90
2019-04-11T17:10:03.918Z,9.90
2019-04-11T17:11:56.796Z,9.80
2019-04-11T17:13:49.532Z,9.80
2019-04-11T17:15:41.677Z,9.80
2019-04-11T17:17:33.839Z,9.70
2019-04-11T17:19:26.197Z,9.70
2019-04-11T17:21:18.699Z,9.70
2019-04-11T17:23:10.798Z,9.70
2019-04-11T17:25:02.984Z,9.70
2019-04-11T17:26:55.481Z,9.60
2019-04-11T17:28:47.508Z,9.40
2019-04-11T17:30:39.871Z,9.40
2019-04-11T17:32:31.887Z,9.30
2019-04-11T17:34:24.146Z,9.40
2019-04-11T17:36:16.321Z,9.40
2019-04-11T17:38:08.675Z,9.40
2019-04-11T17:40:00.799Z,9.40
2019-04-11T17:41:53.254Z,9.30
2019-04-11T17:43:47.036Z,9.30
2019-04-11T17:45:39.262Z,9.30
2019-04-11T17:47:31.553Z,9.40
2019-04-11T17:49:23.744Z,9.30
2019-04-11T17:51:15.987Z,9.40
2019-04-11T17:53:08.079Z,9.30
2019-04-11T17:55:00.399Z,9.30
2019-04-11T17:56:54.864Z,9.30
2019-04-11T17:58:47.028Z,9.30
2019-04-11T18:00:40.913Z,9.30
2019-04-11T18:02:32.865Z,9.30
2019-04-11T18:04:25.128Z,9.30
2019-04-11T18:06:17.784Z,9.30
2019-04-11T18:08:11.515Z,9.30
2019-04-11T18:10:04.533Z,9.30
2019-04-11T18:11:56.842Z,9.20
2019-04-11T18:13:49.760Z,9.20
2019-04-11T18:15:42.982Z,9.20
2019-04-11T18:17:35.664Z,9.20
2019-04-11T18:19:27.868Z,9.20
2019-04-11T18:21:19.828Z,9.10
2019-04-11T18:23:12.304Z,9.20
2019-04-11T18:25:05.589Z,9.10
2019-04-11T18:26:57.557Z,9.00
2019-04-11T18:28:51.753Z,9.10
2019-04-11T18:30:43.984Z,9.00
2019-04-11T18:32:36.257Z,8.90
2019-04-11T18:34:31.551Z,8.90
2019-04-11T18:36:22.916Z,8.90
2019-04-11T18:38:15.258Z,8.90
2019-04-11T18:40:10.330Z,8.80
2019-04-11T18:42:02.252Z,8.70
2019-04-11T18:43:55.937Z,8.70
2019-04-11T18:45:48.493Z,8.70
2019-04-11T18:47:41.292Z,8.70
2019-04-11T18:49:34.097Z,8.60
2019-04-11T18:51:27.169Z,8.60
2019-04-11T18:53:19.719Z,8.60
2019-04-11T18:55:13.185Z,8.60
2019-04-11T18:57:06.352Z,8.60
2019-04-11T18:58:59.391Z,8.50
2019-04-11T19:00:51.964Z,8.50
2019-04-11T19:02:45.076Z,8.40
2019-04-11T19:04:42.030Z,8.30
2019-04-11T19:06:32.631Z,8.30
2019-04-11T19:08:25.981Z,8.30
2019-04-11T19:10:19.605Z,8.30
2019-04-11T19:12:15.945Z,8.30
2019-04-11T19:14:08.817Z,8.30
2019-04-11T19:16:02.589Z,8.20
2019-04-11T19:18:06.111Z,8.20
2019-04-11T19:19:51.146Z,8.30
2019-04-11T19:21:44.497Z,8.20
2019-04-11T19:23:39.051Z,8.20
2019-04-11T19:25:32.905Z,8.10
2019-04-11T19:27:26.514Z,8.20
2019-04-11T19:29:20.356Z,8.10
2019-04-11T19:31:14.226Z,8.20
2019-04-11T19:33:07.994Z,8.20
2019-04-11T19:35:03.649Z,8.30
2019-04-11T19:36:57.821Z,8.20
2019-04-11T19:38:51.416Z,8.10
2019-04-11T19:40:47.102Z,8.10
2019-04-11T19:42:39.849Z,8.10
2019-04-11T19:44:35.154Z,8.10
2019-04-11T19:46:28.678Z,8.00
2019-04-11T19:48:25.006Z,8.00
2019-04-11T19:50:17.843Z,7.80
2019-04-11T19:52:11.516Z,7.90
2019-04-11T19:54:07.568Z,7.80
2019-04-11T19:56:10.842Z,7.80
2019-04-11T19:58:05.217Z,7.70
2019-04-11T19:59:59.004Z,7.70
2019-04-11T20:01:53.221Z,7.70
2019-04-11T20:03:47.091Z,7.70
2019-04-11T20:05:40.801Z,7.70
2019-04-11T20:07:35.391Z,7.60
2019-04-11T20:09:29.245Z,7.70
2019-04-11T20:11:23.078Z,7.70
2019-04-11T20:13:16.558Z,7.70
2019-04-11T20:15:10.113Z,7.70
2019-04-11T20:17:03.927Z,7.60
2019-04-11T20:18:58.045Z,7.60
2019-04-11T20:20:52.423Z,7.60
2019-04-11T20:22:57.941Z,7.50
2019-04-11T20:24:45.716Z,7.50
2019-04-11T20:26:35.464Z,7.40
2019-04-11T20:28:29.325Z,7.40
2019-04-11T20:30:25.190Z,7.50
2019-04-11T20:32:17.473Z,7.40
2019-04-11T20:34:11.289Z,7.50
2019-04-11T20:36:04.583Z,7.40
2019-04-11T20:37:57.170Z,7.50
2019-04-11T20:39:49.608Z,7.40
2019-04-11T20:41:42.321Z,7.50
2019-04-11T20:43:34.538Z,7.50
2019-04-11T20:45:28.771Z,7.50
2019-04-11T20:47:21.879Z,7.50
2019-04-11T20:49:13.878Z,7.40
2019-04-11T20:51:06.204Z,7.40
2019-04-11T20:53:03.201Z,7.40
2019-04-11T20:54:52.362Z,7.40
2019-04-11T20:56:44.477Z,7.30
2019-04-11T20:58:39.668Z,7.30
2019-04-11T21:00:30.859Z,7.30
2019-04-11T21:02:23.000Z,7.30
2019-04-11T21:04:15.184Z,7.20
2019-04-11T21:06:07.381Z,7.20
2019-04-11T21:08:02.742Z,7.30
2019-04-11T21:09:53.467Z,7.20
2019-04-11T21:11:45.472Z,7.20
2019-04-11T21:13:38.351Z,7.20
2019-04-11T21:15:31.424Z,7.20
2019-04-11T21:17:23.810Z,7.20
2019-04-11T21:19:17.406Z,7.20
2019-04-11T21:21:09.765Z,7.20
2019-04-11T21:23:01.973Z,7.20
2019-04-11T21:24:54.182Z,7.20
2019-04-11T21:26:47.027Z,7.20
2019-04-11T21:28:39.439Z,7.10
2019-04-11T21:30:31.769Z,7.10
2019-04-11T21:32:23.963Z,7.10
2019-04-11T21:34:16.100Z,7.10
2019-04-11T21:36:08.260Z,7.10
2019-04-11T21:38:00.976Z,7.10
2019-04-11T21:39:53.658Z,7.10
2019-04-11T21:41:45.917Z,7.00
2019-04-11T21:43:37.799Z,6.90
2019-04-11T21:45:30.486Z,6.90
2019-04-11T21:47:22.595Z,6.90
2019-04-11T21:49:14.881Z,6.90
2019-04-11T21:51:11.147Z,6.80
2019-04-11T21:53:00.568Z,6.80
2019-04-11T21:54:53.170Z,6.80
2019-04-11T21:56:49.259Z,6.90
2019-04-11T21:58:39.079Z,6.90
2019-04-11T22:00:39.824Z,6.80
2019-04-11T22:02:33.359Z,6.90
2019-04-11T22:04:27.143Z,6.90
2019-04-11T22:06:21.020Z,6.90
2019-04-11T22:08:13.646Z,7.00
2019-04-11T22:10:07.669Z,7.00
2019-04-11T22:12:00.017Z,7.00
2019-04-11T22:13:52.151Z,7.00
2019-04-11T22:15:44.580Z,7.00
2019-04-11T22:17:36.855Z,7.00
2019-04-11T22:19:29.420Z,7.00
2019-04-11T22:21:22.637Z,6.90
2019-04-11T22:23:14.736Z,6.90
2019-04-11T22:25:07.210Z,7.00
2019-04-11T22:26:59.460Z,7.00
2019-04-11T22:28:54.911Z,6.90
2019-04-11T22:30:46.201Z,6.80
2019-04-11T22:32:40.071Z,6.90
2019-04-11T22:34:39.575Z,6.80
2019-04-11T22:36:31.689Z,6.80
2019-04-11T22:38:23.755Z,6.80
2019-04-11T22:40:17.539Z,6.90
2019-04-11T22:42:09.847Z,6.90
2019-04-11T22:44:01.782Z,6.80
2019-04-11T22:45:53.753Z,6.90
2019-04-11T22:47:46.299Z,6.90
2019-04-11T22:49:39.315Z,6.80
2019-04-11T22:51:32.408Z,6.80
2019-04-11T22:53:24.519Z,6.80
2019-04-11T22:55:16.987Z,6.80
2019-04-11T22:57:11.650Z,6.90
2019-04-11T22:59:03.132Z,6.90
2019-04-11T23:00:55.371Z,7.00
2019-04-11T23:02:49.309Z,6.90
2019-04-11T23:04:41.359Z,6.90
2019-04-11T23:06:33.844Z,6.90
2019-04-11T23:08:25.974Z,6.90
2019-04-11T23:10:18.122Z,6.90
2019-04-11T23:12:12.715Z,6.90
2019-04-11T23:14:06.548Z,6.80
2019-04-11T23:15:58.900Z,6.80
2019-04-11T23:17:50.976Z,6.70
2019-04-11T23:19:44.114Z,6.80
2019-04-11T23:21:37.304Z,6.80
2019-04-11T23:23:29.227Z,6.70
2019-04-11T23:25:21.574Z,6.70
2019-04-11T23:27:13.449Z,6.70
2019-04-11T23:29:05.884Z,6.60
2019-04-11T23:30:58.257Z,6.60
2019-04-11T23:32:51.681Z,6.70
2019-04-11T23:34:44.081Z,6.60
2019-04-11T23:36:36.236Z,6.60
2019-04-11T23:38:28.664Z,6.60
2019-04-11T23:40:21.747Z,6.50
2019-04-11T23:42:14.527Z,6.50
2019-04-11T23:44:06.641Z,6.40
2019-04-11T23:45:58.856Z,6.40
2019-04-11T23:47:54.106Z,6.40
2019-04-11T23:49:45.050Z,6.40
2019-04-11T23:51:36.926Z,6.40
2019-04-11T23:53:29.331Z,6.30
2019-04-11T23:55:21.804Z,6.30
2019-04-11T23:57:13.873Z,6.20
2019-04-11T23:59:06.174Z,6.20
